sensor_id;sensor_type;location;lat;lon;timestamp;pressure;altitude;pressure_sealevel;temperature;humidity
41898;BME280;27576;53.366;-1.498;2024-02-26T00:01:33;99094.81;;;3.27;100.00
41898;BME280;27576;53.366;-1.498;2024-02-26T00:03:59;99144.88;;;3.54;100.00
41898;BME280;27576;53.366;-1.498;2024-02-26T00:06:25;99149.09;;;3.52;100.00
41898;BME280;27576;53.366;-1.498;2024-02-26T00:08:50;99155.00;;;3.49;100.00
41898;BME280;27576;53.366;-1.498;2024-02-26T00:11:16;99154.06;;;3.45;100.00
41898;BME280;27576;53.366;-1.498;2024-02-26T00:13:41;99127.94;;;3.21;100.00
41898;BME280;27576;53.366;-1.498;2024-02-26T00:16:06;99172.66;;;3.35;100.00
41898;BME280;27576;53.366;-1.498;2024-02-26T00:18:33;99123.34;;;3.05;100.00
41898;BME280;27576;53.366;-1.498;2024-02-26T00:20:58;99174.25;;;3.30;100.00
41898;BME280;27576;53.366;-1.498;2024-02-26T00:23:23;99168.22;;;3.28;100.00
41898;BME280;27576;53.366;-1.498;2024-02-26T00:25:49;99120.56;;;2.95;100.00
41898;BME280;27576;53.366;-1.498;2024-02-26T00:28:14;99171.63;;;3.27;100.00
41898;BME280;27576;53.366;-1.498;2024-02-26T00:30:40;99163.78;;;3.21;100.00
41898;BME280;27576;53.366;-1.498;2024-02-26T00:33:05;99150.88;;;3.15;100.00
41898;BME280;27576;53.366;-1.498;2024-02-26T00:35:31;99148.16;;;3.09;100.00
41898;BME280;27576;53.366;-1.498;2024-02-26T00:37:56;99181.69;;;3.21;100.00
41898;BME280;27576;53.366;-1.498;2024-02-26T00:40:22;99173.09;;;3.17;100.00
41898;BME280;27576;53.366;-1.498;2024-02-26T00:42:47;99175.69;;;3.19;100.00
41898;BME280;27576;53.366;-1.498;2024-02-26T00:45:13;99202.44;;;3.33;100.00
41898;BME280;27576;53.366;-1.498;2024-02-26T00:47:39;99163.59;;;3.12;100.00
41898;BME280;27576;53.366;-1.498;2024-02-26T00:50:06;99153.19;;;3.06;100.00
41898;BME280;27576;53.366;-1.498;2024-02-26T00:52:32;99203.13;;;3.25;100.00
41898;BME280;27576;53.366;-1.498;2024-02-26T00:54:57;99192.53;;;3.09;100.00
41898;BME280;27576;53.366;-1.498;2024-02-26T00:57:23;99194.03;;;3.00;100.00
41898;BME280;27576;53.366;-1.498;2024-02-26T00:59:48;99225.00;;;3.12;100.00
41898;BME280;27576;53.366;-1.498;2024-02-26T01:02:14;99216.88;;;2.93;100.00
41898;BME280;27576;53.366;-1.498;2024-02-26T01:04:39;99218.63;;;2.94;100.00
41898;BME280;27576;53.366;-1.498;2024-02-26T01:07:04;99183.91;;;2.69;100.00
41898;BME280;27576;53.366;-1.498;2024-02-26T01:09:30;99189.84;;;2.68;100.00
41898;BME280;27576;53.366;-1.498;2024-02-26T01:11:56;99236.41;;;2.88;100.00
41898;BME280;27576;53.366;-1.498;2024-02-26T01:14:21;99186.94;;;2.55;100.00
41898;BME280;27576;53.366;-1.498;2024-02-26T01:16:46;99253.47;;;2.89;100.00
41898;BME280;27576;53.366;-1.498;2024-02-26T01:19:12;99237.91;;;2.80;100.00
41898;BME280;27576;53.366;-1.498;2024-02-26T01:21:37;99238.75;;;2.81;100.00
41898;BME280;27576;53.366;-1.498;2024-02-26T01:24:03;99266.34;;;2.92;100.00
41898;BME280;27576;53.366;-1.498;2024-02-26T01:26:28;99237.81;;;2.77;100.00
41898;BME280;27576;53.366;-1.498;2024-02-26T01:28:54;99245.50;;;2.79;100.00
41898;BME280;27576;53.366;-1.498;2024-02-26T01:31:20;99244.44;;;2.69;100.00
41898;BME280;27576;53.366;-1.498;2024-02-26T01:33:46;99265.09;;;2.77;100.00
41898;BME280;27576;53.366;-1.498;2024-02-26T01:36:11;99252.97;;;2.69;100.00
41898;BME280;27576;53.366;-1.498;2024-02-26T01:38:37;99291.75;;;2.86;100.00
41898;BME280;27576;53.366;-1.498;2024-02-26T01:41:02;99282.13;;;2.76;100.00
41898;BME280;27576;53.366;-1.498;2024-02-26T01:43:28;99307.25;;;2.91;100.00
41898;BME280;27576;53.366;-1.498;2024-02-26T01:45:53;99284.09;;;2.86;100.00
41898;BME280;27576;53.366;-1.498;2024-02-26T01:48:19;99275.34;;;2.78;100.00
41898;BME280;27576;53.366;-1.498;2024-02-26T01:50:44;99277.03;;;2.76;100.00
41898;BME280;27576;53.366;-1.498;2024-02-26T01:53:10;99283.78;;;2.74;100.00
41898;BME280;27576;53.366;-1.498;2024-02-26T01:55:36;99282.69;;;2.64;100.00
41898;BME280;27576;53.366;-1.498;2024-02-26T01:58:02;99297.31;;;2.70;100.00
41898;BME280;27576;53.366;-1.498;2024-02-26T02:00:27;99305.63;;;2.61;100.00
41898;BME280;27576;53.366;-1.498;2024-02-26T02:02:53;99316.94;;;2.71;100.00
41898;BME280;27576;53.366;-1.498;2024-02-26T02:05:21;99316.81;;;2.66;100.00
41898;BME280;27576;53.366;-1.498;2024-02-26T02:07:47;99324.47;;;2.65;100.00
41898;BME280;27576;53.366;-1.498;2024-02-26T02:10:15;99332.09;;;2.63;100.00
41898;BME280;27576;53.366;-1.498;2024-02-26T02:12:40;99312.78;;;2.43;100.00
41898;BME280;27576;53.366;-1.498;2024-02-26T02:15:06;99304.84;;;2.34;100.00
41898;BME280;27576;53.366;-1.498;2024-02-26T02:17:32;99341.28;;;2.57;100.00
41898;BME280;27576;53.366;-1.498;2024-02-26T02:19:57;99349.81;;;2.56;100.00
41898;BME280;27576;53.366;-1.498;2024-02-26T02:22:23;99348.00;;;2.52;100.00
41898;BME280;27576;53.366;-1.498;2024-02-26T02:24:49;99330.44;;;2.35;100.00
41898;BME280;27576;53.366;-1.498;2024-02-26T02:27:14;99363.31;;;2.52;100.00
41898;BME280;27576;53.366;-1.498;2024-02-26T02:29:40;99360.72;;;2.50;100.00
41898;BME280;27576;53.366;-1.498;2024-02-26T02:32:06;99336.25;;;2.28;100.00
41898;BME280;27576;53.366;-1.498;2024-02-26T02:34:32;99360.72;;;2.50;100.00
41898;BME280;27576;53.366;-1.498;2024-02-26T02:36:59;99385.41;;;2.50;100.00
41898;BME280;27576;53.366;-1.498;2024-02-26T02:39:25;99337.03;;;2.27;100.00
41898;BME280;27576;53.366;-1.498;2024-02-26T02:41:50;99362.16;;;2.40;100.00
41898;BME280;27576;53.366;-1.498;2024-02-26T02:44:16;99369.88;;;2.43;100.00
41898;BME280;27576;53.366;-1.498;2024-02-26T02:46:41;99365.56;;;2.41;100.00
41898;BME280;27576;53.366;-1.498;2024-02-26T02:49:10;99393.28;;;2.56;100.00
41898;BME280;27576;53.366;-1.498;2024-02-26T02:51:39;99405.44;;;2.64;100.00
41898;BME280;27576;53.366;-1.498;2024-02-26T02:54:05;99392.38;;;2.55;100.00
41898;BME280;27576;53.366;-1.498;2024-02-26T02:56:30;99414.72;;;2.61;100.00
41898;BME280;27576;53.366;-1.498;2024-02-26T02:58:55;99413.78;;;2.59;100.00
41898;BME280;27576;53.366;-1.498;2024-02-26T03:01:21;99408.41;;;2.48;100.00
41898;BME280;27576;53.366;-1.498;2024-02-26T03:03:46;99426.31;;;2.50;100.00
41898;BME280;27576;53.366;-1.498;2024-02-26T03:06:11;99413.31;;;2.42;100.00
41898;BME280;27576;53.366;-1.498;2024-02-26T03:08:37;99395.94;;;2.30;100.00
41898;BME280;27576;53.366;-1.498;2024-02-26T03:11:05;99426.09;;;2.42;100.00
41898;BME280;27576;53.366;-1.498;2024-02-26T03:13:30;99430.25;;;2.38;100.00
41898;BME280;27576;53.366;-1.498;2024-02-26T03:15:55;99436.09;;;2.34;100.00
41898;BME280;27576;53.366;-1.498;2024-02-26T03:18:21;99404.06;;;2.17;100.00
41898;BME280;27576;53.366;-1.498;2024-02-26T03:20:46;99414.34;;;2.20;100.00
41898;BME280;27576;53.366;-1.498;2024-02-26T03:23:12;99450.34;;;2.26;100.00
41898;BME280;27576;53.366;-1.498;2024-02-26T03:25:44;99438.28;;;2.22;100.00
41898;BME280;27576;53.366;-1.498;2024-02-26T03:28:11;99439.84;;;2.17;100.00
41898;BME280;27576;53.366;-1.498;2024-02-26T03:30:37;99430.25;;;2.10;100.00
41898;BME280;27576;53.366;-1.498;2024-02-26T03:33:03;99446.78;;;2.21;100.00
41898;BME280;27576;53.366;-1.498;2024-02-26T03:35:28;99430.41;;;2.16;100.00
41898;BME280;27576;53.366;-1.498;2024-02-26T03:37:54;99461.41;;;2.25;100.00
41898;BME280;27576;53.366;-1.498;2024-02-26T03:40:19;99448.25;;;2.13;100.00
41898;BME280;27576;53.366;-1.498;2024-02-26T03:42:45;99449.03;;;2.12;100.00
41898;BME280;27576;53.366;-1.498;2024-02-26T03:45:11;99468.03;;;2.20;100.00
41898;BME280;27576;53.366;-1.498;2024-02-26T03:47:37;99481.75;;;2.22;100.00
41898;BME280;27576;53.366;-1.498;2024-02-26T03:50:05;99454.84;;;2.06;100.00
41898;BME280;27576;53.366;-1.498;2024-02-26T03:52:31;99463.38;;;2.07;100.00
41898;BME280;27576;53.366;-1.498;2024-02-26T03:54:56;99492.78;;;2.21;100.00
41898;BME280;27576;53.366;-1.498;2024-02-26T03:57:21;99464.81;;;1.99;100.00
41898;BME280;27576;53.366;-1.498;2024-02-26T03:59:47;99467.38;;;1.99;100.00
41898;BME280;27576;53.366;-1.498;2024-02-26T04:02:12;99516.44;;;2.15;100.00
41898;BME280;27576;53.366;-1.498;2024-02-26T04:04:37;99503.78;;;2.18;100.00
41898;BME280;27576;53.366;-1.498;2024-02-26T04:07:03;99501.81;;;2.10;100.00
41898;BME280;27576;53.366;-1.498;2024-02-26T04:09:31;99523.38;;;2.19;100.00
41898;BME280;27576;53.366;-1.498;2024-02-26T04:11:56;99530.25;;;2.20;100.00
41898;BME280;27576;53.366;-1.498;2024-02-26T04:14:22;99535.38;;;2.20;100.00
41898;BME280;27576;53.366;-1.498;2024-02-26T04:16:47;99504.09;;;2.02;100.00
41898;BME280;27576;53.366;-1.498;2024-02-26T04:19:16;99502.31;;;2.00;100.00
41898;BME280;27576;53.366;-1.498;2024-02-26T04:21:43;99519.44;;;2.02;100.00
41898;BME280;27576;53.366;-1.498;2024-02-26T04:24:08;99511.53;;;1.94;100.00
41898;BME280;27576;53.366;-1.498;2024-02-26T04:26:34;99560.03;;;2.20;100.00
41898;BME280;27576;53.366;-1.498;2024-02-26T04:29:00;99547.03;;;2.12;100.00
41898;BME280;27576;53.366;-1.498;2024-02-26T04:31:25;99542.47;;;2.04;100.00
41898;BME280;27576;53.366;-1.498;2024-02-26T04:33:51;99556.06;;;2.03;100.00
41898;BME280;27576;53.366;-1.498;2024-02-26T04:36:17;99549.13;;;1.99;100.00
41898;BME280;27576;53.366;-1.498;2024-02-26T04:38:46;99582.13;;;2.18;100.00
41898;BME280;27576;53.366;-1.498;2024-02-26T04:41:11;99587.25;;;2.18;100.00
41898;BME280;27576;53.366;-1.498;2024-02-26T04:43:37;99569.78;;;2.05;100.00
41898;BME280;27576;53.366;-1.498;2024-02-26T04:46:09;99551.53;;;1.94;100.00
41898;BME280;27576;53.366;-1.498;2024-02-26T04:48:36;99557.41;;;1.91;100.00
41898;BME280;27576;53.366;-1.498;2024-02-26T04:51:02;99601.63;;;2.14;100.00
41898;BME280;27576;53.366;-1.498;2024-02-26T04:53:27;99578.81;;;1.95;100.00
41898;BME280;27576;53.366;-1.498;2024-02-26T04:55:53;99610.81;;;2.09;100.00
41898;BME280;27576;53.366;-1.498;2024-02-26T04:58:18;99588.88;;;1.90;100.00
41898;BME280;27576;53.366;-1.498;2024-02-26T05:00:44;99620.09;;;2.07;100.00
41898;BME280;27576;53.366;-1.498;2024-02-26T05:03:09;99626.19;;;2.11;100.00
41898;BME280;27576;53.366;-1.498;2024-02-26T05:05:39;99636.41;;;2.11;100.00
41898;BME280;27576;53.366;-1.498;2024-02-26T05:08:05;99618.88;;;1.96;100.00
41898;BME280;27576;53.366;-1.498;2024-02-26T05:10:30;99629.47;;;2.07;100.00
41898;BME280;27576;53.366;-1.498;2024-02-26T05:12:55;99635.56;;;2.10;100.00
41898;BME280;27576;53.366;-1.498;2024-02-26T05:15:21;99650.22;;;2.16;100.00
41898;BME280;27576;53.366;-1.498;2024-02-26T05:17:46;99632.16;;;2.11;100.00
41898;BME280;27576;53.366;-1.498;2024-02-26T05:20:12;99640.94;;;2.18;100.00
41898;BME280;27576;53.366;-1.498;2024-02-26T05:22:37;99648.75;;;2.22;100.00
41898;BME280;27576;53.366;-1.498;2024-02-26T05:25:03;99666.25;;;2.36;100.00
41898;BME280;27576;53.366;-1.498;2024-02-26T05:27:29;99674.88;;;2.39;100.00
41898;BME280;27576;53.366;-1.498;2024-02-26T05:29:54;99690.53;;;2.49;100.00
41898;BME280;27576;53.366;-1.498;2024-02-26T05:32:20;99696.50;;;2.49;100.00
41898;BME280;27576;53.366;-1.498;2024-02-26T05:34:45;99667.13;;;2.36;100.00
41898;BME280;27576;53.366;-1.498;2024-02-26T05:37:10;99689.72;;;2.50;100.00
41898;BME280;27576;53.366;-1.498;2024-02-26T05:39:36;99688.56;;;2.40;100.00
41898;BME280;27576;53.366;-1.498;2024-02-26T05:42:02;99684.06;;;2.34;100.00
41898;BME280;27576;53.366;-1.498;2024-02-26T05:44:28;99713.41;;;2.44;100.00
41898;BME280;27576;53.366;-1.498;2024-02-26T05:46:53;99721.94;;;2.44;100.00
41898;BME280;27576;53.366;-1.498;2024-02-26T05:49:18;99729.91;;;2.54;100.00
41898;BME280;27576;53.366;-1.498;2024-02-26T05:51:44;99716.03;;;2.47;100.00
41898;BME280;27576;53.366;-1.498;2024-02-26T05:54:09;99689.91;;;2.30;100.00
41898;BME280;27576;53.366;-1.498;2024-02-26T05:56:35;99722.72;;;2.43;100.00
41898;BME280;27576;53.366;-1.498;2024-02-26T05:59:01;99742.59;;;2.51;100.00
41898;BME280;27576;53.366;-1.498;2024-02-26T06:01:26;99747.44;;;2.43;100.00
41898;BME280;27576;53.366;-1.498;2024-02-26T06:03:51;99743.00;;;2.37;100.00
41898;BME280;27576;53.366;-1.498;2024-02-26T06:06:17;99760.19;;;2.41;100.00
41898;BME280;27576;53.366;-1.498;2024-02-26T06:08:43;99724.41;;;2.17;100.00
41898;BME280;27576;53.366;-1.498;2024-02-26T06:11:08;99751.31;;;2.32;100.00
41898;BME280;27576;53.366;-1.498;2024-02-26T06:13:35;99732.50;;;2.06;100.00
41898;BME280;27576;53.366;-1.498;2024-02-26T06:16:00;99736.91;;;2.10;100.00
41898;BME280;27576;53.366;-1.498;2024-02-26T06:18:26;99773.34;;;2.28;100.00
41898;BME280;27576;53.366;-1.498;2024-02-26T06:20:52;99708.84;;;1.87;100.00
41898;BME280;27576;53.366;-1.498;2024-02-26T06:23:17;99744.28;;;2.02;100.00
41898;BME280;27576;53.366;-1.498;2024-02-26T06:25:42;99776.50;;;2.21;100.00
41898;BME280;27576;53.366;-1.498;2024-02-26T06:28:08;99799.00;;;2.31;100.00
41898;BME280;27576;53.366;-1.498;2024-02-26T06:30:34;99782.59;;;2.25;100.00
41898;BME280;27576;53.366;-1.498;2024-02-26T06:32:59;99779.34;;;2.29;100.00
41898;BME280;27576;53.366;-1.498;2024-02-26T06:35:25;99793.41;;;2.41;100.00
41898;BME280;27576;53.366;-1.498;2024-02-26T06:37:51;99793.31;;;2.38;100.00
41898;BME280;27576;53.366;-1.498;2024-02-26T06:40:18;99812.31;;;2.45;100.00
41898;BME280;27576;53.366;-1.498;2024-02-26T06:42:44;99782.88;;;2.32;100.00
41898;BME280;27576;53.366;-1.498;2024-02-26T06:45:09;99802.06;;;2.45;100.00
41898;BME280;27576;53.366;-1.498;2024-02-26T06:47:35;99780.13;;;2.28;100.00
41898;BME280;27576;53.366;-1.498;2024-02-26T06:50:01;99813.06;;;2.42;100.00
41898;BME280;27576;53.366;-1.498;2024-02-26T06:52:26;99778.34;;;2.25;100.00
41898;BME280;27576;53.366;-1.498;2024-02-26T06:54:52;99771.50;;;2.24;100.00
41898;BME280;27576;53.366;-1.498;2024-02-26T06:57:21;99834.00;;;2.56;100.00
41898;BME280;27576;53.366;-1.498;2024-02-26T06:59:46;99822.53;;;2.45;100.00
41898;BME280;27576;53.366;-1.498;2024-02-26T07:02:13;99849.63;;;2.64;100.00
41898;BME280;27576;53.366;-1.498;2024-02-26T07:04:38;99832.44;;;2.60;100.00
41898;BME280;27576;53.366;-1.498;2024-02-26T07:07:04;99845.28;;;2.61;100.00
41898;BME280;27576;53.366;-1.498;2024-02-26T07:09:29;99845.44;;;2.66;100.00
41898;BME280;27576;53.366;-1.498;2024-02-26T07:11:55;99836.63;;;2.58;100.00
41898;BME280;27576;53.366;-1.498;2024-02-26T07:14:20;99845.31;;;2.63;100.00
41898;BME280;27576;53.366;-1.498;2024-02-26T07:16:45;99825.41;;;2.54;100.00
41898;BME280;27576;53.366;-1.498;2024-02-26T07:19:11;99858.34;;;2.69;100.00
41898;BME280;27576;53.366;-1.498;2024-02-26T07:21:36;99869.44;;;2.69;100.00
41898;BME280;27576;53.366;-1.498;2024-02-26T07:24:02;99858.09;;;2.63;100.00
41898;BME280;27576;53.366;-1.498;2024-02-26T07:26:27;99839.56;;;2.44;100.00
41898;BME280;27576;53.366;-1.498;2024-02-26T07:28:55;99866.44;;;2.57;100.00
41898;BME280;27576;53.366;-1.498;2024-02-26T07:31:20;99875.50;;;2.72;100.00
41898;BME280;27576;53.366;-1.498;2024-02-26T07:33:46;99848.31;;;2.51;100.00
41898;BME280;27576;53.366;-1.498;2024-02-26T07:36:11;99876.94;;;2.65;100.00
41898;BME280;27576;53.366;-1.498;2024-02-26T07:38:37;99896.22;;;2.79;100.00
41898;BME280;27576;53.366;-1.498;2024-02-26T07:41:03;99896.31;;;2.82;100.00
41898;BME280;27576;53.366;-1.498;2024-02-26T07:43:28;99903.13;;;2.82;100.00
41898;BME280;27576;53.366;-1.498;2024-02-26T07:45:54;99909.25;;;2.87;100.00
41898;BME280;27576;53.366;-1.498;2024-02-26T07:48:19;99873.56;;;2.66;100.00
41898;BME280;27576;53.366;-1.498;2024-02-26T07:50:45;99896.94;;;2.75;100.00
41898;BME280;27576;53.366;-1.498;2024-02-26T07:53:10;99928.28;;;2.93;100.00
41898;BME280;27576;53.366;-1.498;2024-02-26T07:55:36;99939.47;;;2.95;100.00
41898;BME280;27576;53.366;-1.498;2024-02-26T07:58:01;99913.50;;;2.86;100.00
41898;BME280;27576;53.366;-1.498;2024-02-26T08:00:26;99914.34;;;2.85;100.00
41898;BME280;27576;53.366;-1.498;2024-02-26T08:02:52;99948.28;;;3.04;100.00
41898;BME280;27576;53.366;-1.498;2024-02-26T08:05:17;99905.75;;;2.83;100.00
41898;BME280;27576;53.366;-1.498;2024-02-26T08:07:43;99929.22;;;2.95;100.00
41898;BME280;27576;53.366;-1.498;2024-02-26T08:10:08;99851.13;;;2.59;100.00
41898;BME280;27576;53.366;-1.498;2024-02-26T08:12:34;99932.09;;;3.05;100.00
41898;BME280;27576;53.366;-1.498;2024-02-26T08:15:00;99957.53;;;3.24;100.00
41898;BME280;27576;53.366;-1.498;2024-02-26T08:17:26;99964.50;;;3.28;100.00
41898;BME280;27576;53.366;-1.498;2024-02-26T08:19:53;99947.25;;;3.23;100.00
41898;BME280;27576;53.366;-1.498;2024-02-26T08:22:18;99971.56;;;3.35;100.00
41898;BME280;27576;53.366;-1.498;2024-02-26T08:24:43;99960.19;;;3.27;100.00
41898;BME280;27576;53.366;-1.498;2024-02-26T08:27:09;99947.00;;;3.16;100.00
41898;BME280;27576;53.366;-1.498;2024-02-26T08:29:35;99977.34;;;3.30;100.00
41898;BME280;27576;53.366;-1.498;2024-02-26T08:32:00;99959.84;;;3.18;100.00
41898;BME280;27576;53.366;-1.498;2024-02-26T08:34:26;99996.19;;;3.32;100.00
41898;BME280;27576;53.366;-1.498;2024-02-26T08:36:51;99973.38;;;3.14;100.00
41898;BME280;27576;53.366;-1.498;2024-02-26T08:39:17;99965.47;;;3.08;100.00
41898;BME280;27576;53.366;-1.498;2024-02-26T08:41:43;99975.59;;;3.05;100.00
41898;BME280;27576;53.366;-1.498;2024-02-26T08:44:09;99976.44;;;3.04;100.00
41898;BME280;27576;53.366;-1.498;2024-02-26T08:46:34;100000.03;;;3.19;100.00
41898;BME280;27576;53.366;-1.498;2024-02-26T08:49:00;99965.97;;;2.98;100.00
41898;BME280;27576;53.366;-1.498;2024-02-26T08:51:25;100004.09;;;3.14;100.00
41898;BME280;27576;53.366;-1.498;2024-02-26T08:53:51;99970.97;;;2.94;100.00
41898;BME280;27576;53.366;-1.498;2024-02-26T08:56:16;99957.38;;;2.95;100.00
41898;BME280;27576;53.366;-1.498;2024-02-26T08:58:45;100011.34;;;3.26;100.00
41898;BME280;27576;53.366;-1.498;2024-02-26T09:01:14;100001.88;;;3.23;100.00
41898;BME280;27576;53.366;-1.498;2024-02-26T09:03:39;100000.09;;;3.22;100.00
41898;BME280;27576;53.366;-1.498;2024-02-26T09:06:05;100042.63;;;3.41;100.00
41898;BME280;27576;53.366;-1.498;2024-02-26T09:08:32;100025.19;;;3.31;100.00
41898;BME280;27576;53.366;-1.498;2024-02-26T09:10:57;100009.56;;;3.23;100.00
41898;BME280;27576;53.366;-1.498;2024-02-26T09:13:23;100055.53;;;3.44;100.00
41898;BME280;27576;53.366;-1.498;2024-02-26T09:15:48;100048.16;;;3.53;100.00
41898;BME280;27576;53.366;-1.498;2024-02-26T09:18:14;100001.47;;;3.36;100.00
41898;BME280;27576;53.366;-1.498;2024-02-26T09:20:40;100046.09;;;3.67;100.00
41898;BME280;27576;53.366;-1.498;2024-02-26T09:23:06;100047.13;;;3.72;100.00
41898;BME280;27576;53.366;-1.498;2024-02-26T09:25:31;100032.56;;;3.71;100.00
41898;BME280;27576;53.366;-1.498;2024-02-26T09:27:59;100058.13;;;3.93;100.00
41898;BME280;27576;53.366;-1.498;2024-02-26T09:30:24;100064.03;;;3.92;100.00
41898;BME280;27576;53.366;-1.498;2024-02-26T09:32:50;100039.19;;;3.90;100.00
41898;BME280;27576;53.366;-1.498;2024-02-26T09:35:15;100075.75;;;4.10;100.00
41898;BME280;27576;53.366;-1.498;2024-02-26T09:37:41;100061.00;;;4.04;100.00
41898;BME280;27576;53.366;-1.498;2024-02-26T09:40:08;100078.88;;;4.27;100.00
41898;BME280;27576;53.366;-1.498;2024-02-26T09:42:35;100085.19;;;4.36;100.00
41898;BME280;27576;53.366;-1.498;2024-02-26T09:45:05;100090.50;;;4.42;100.00
41898;BME280;27576;53.366;-1.498;2024-02-26T09:47:35;100069.38;;;4.24;100.00
41898;BME280;27576;53.366;-1.498;2024-02-26T09:50:02;100080.09;;;4.38;100.00
41898;BME280;27576;53.366;-1.498;2024-02-26T09:52:31;100105.38;;;4.53;100.00
41898;BME280;27576;53.366;-1.498;2024-02-26T09:54:58;100103.81;;;4.58;100.00
41898;BME280;27576;53.366;-1.498;2024-02-26T09:57:24;100103.09;;;4.62;100.00
41898;BME280;27576;53.366;-1.498;2024-02-26T09:59:51;100100.81;;;4.71;100.00
41898;BME280;27576;53.366;-1.498;2024-02-26T10:02:19;100113.06;;;4.80;100.00
41898;BME280;27576;53.366;-1.498;2024-02-26T10:04:47;100119.25;;;4.86;100.00
41898;BME280;27576;53.366;-1.498;2024-02-26T10:07:16;100074.13;;;4.66;100.00
41898;BME280;27576;53.366;-1.498;2024-02-26T10:09:42;100104.94;;;4.95;100.00
41898;BME280;27576;53.366;-1.498;2024-02-26T10:12:10;100121.66;;;5.09;100.00
41898;BME280;27576;53.366;-1.498;2024-02-26T10:14:36;100123.69;;;5.19;100.00
41898;BME280;27576;53.366;-1.498;2024-02-26T10:17:02;100116.94;;;5.23;100.00
41898;BME280;27576;53.366;-1.498;2024-02-26T10:19:29;100113.66;;;5.27;100.00
41898;BME280;27576;53.366;-1.498;2024-02-26T10:21:59;100124.22;;;5.37;100.00
41898;BME280;27576;53.366;-1.498;2024-02-26T10:24:26;100127.88;;;5.46;100.00
41898;BME280;27576;53.366;-1.498;2024-02-26T10:26:52;100106.50;;;5.47;100.00
41898;BME280;27576;53.366;-1.498;2024-02-26T10:29:20;100126.75;;;5.66;100.00
41898;BME280;27576;53.366;-1.498;2024-02-26T10:31:46;100098.06;;;5.51;100.00
41898;BME280;27576;53.366;-1.498;2024-02-26T10:34:12;100119.81;;;5.63;100.00
41898;BME280;27576;53.366;-1.498;2024-02-26T10:36:38;100133.88;;;5.76;100.00
41898;BME280;27576;53.366;-1.498;2024-02-26T10:39:06;100110.31;;;5.61;100.00
41898;BME280;27576;53.366;-1.498;2024-02-26T10:41:35;100140.81;;;5.79;100.00
41898;BME280;27576;53.366;-1.498;2024-02-26T10:44:00;100131.16;;;5.70;100.00
41898;BME280;27576;53.366;-1.498;2024-02-26T10:46:27;100156.28;;;5.80;100.00
41898;BME280;27576;53.366;-1.498;2024-02-26T10:48:53;100137.84;;;5.65;100.00
41898;BME280;27576;53.366;-1.498;2024-02-26T10:51:26;100139.66;;;5.68;100.00
41898;BME280;27576;53.366;-1.498;2024-02-26T10:53:57;100160.19;;;5.66;100.00
41898;BME280;27576;53.366;-1.498;2024-02-26T10:56:26;100175.44;;;5.61;100.00
41898;BME280;27576;53.366;-1.498;2024-02-26T10:58:53;100173.38;;;5.50;100.00
41898;BME280;27576;53.366;-1.498;2024-02-26T11:01:19;100178.28;;;5.42;100.00
41898;BME280;27576;53.366;-1.498;2024-02-26T11:03:48;100158.19;;;5.27;100.00
41898;BME280;27576;53.366;-1.498;2024-02-26T11:06:15;100177.63;;;5.48;100.00
41898;BME280;27576;53.366;-1.498;2024-02-26T11:08:41;100121.16;;;5.21;100.00
41898;BME280;27576;53.366;-1.498;2024-02-26T11:11:07;100162.44;;;5.55;100.00
41898;BME280;27576;53.366;-1.498;2024-02-26T11:13:34;100138.16;;;5.46;100.00
41898;BME280;27576;53.366;-1.498;2024-02-26T11:16:04;100175.00;;;5.76;100.00
41898;BME280;27576;53.366;-1.498;2024-02-26T11:18:31;100191.09;;;5.98;100.00
41898;BME280;27576;53.366;-1.498;2024-02-26T11:20:57;100163.31;;;5.86;100.00
41898;BME280;27576;53.366;-1.498;2024-02-26T11:23:23;100179.69;;;5.89;100.00
41898;BME280;27576;53.366;-1.498;2024-02-26T11:25:50;100164.19;;;5.86;100.00
41898;BME280;27576;53.366;-1.498;2024-02-26T11:28:19;100196.41;;;6.04;100.00
41898;BME280;27576;53.366;-1.498;2024-02-26T11:30:47;100180.28;;;6.09;100.00
41898;BME280;27576;53.366;-1.498;2024-02-26T11:33:15;100188.34;;;6.23;100.00
41898;BME280;27576;53.366;-1.498;2024-02-26T11:35:41;100111.22;;;5.93;100.00
41898;BME280;27576;53.366;-1.498;2024-02-26T11:38:07;100182.69;;;6.36;100.00
41898;BME280;27576;53.366;-1.498;2024-02-26T11:40:33;100191.53;;;6.46;100.00
41898;BME280;27576;53.366;-1.498;2024-02-26T11:43:03;100187.47;;;6.56;100.00
41898;BME280;27576;53.366;-1.498;2024-02-26T11:48:21;100204.31;;;6.76;100.00
41898;BME280;27576;53.366;-1.498;2024-02-26T11:50:49;100212.34;;;6.88;100.00
41898;BME280;27576;53.366;-1.498;2024-02-26T11:55:47;100169.28;;;7.19;100.00
41898;BME280;27576;53.366;-1.498;2024-02-26T11:58:12;100195.09;;;7.61;100.00
41898;BME280;27576;53.366;-1.498;2024-02-26T12:00:40;100178.56;;;7.52;100.00
41898;BME280;27576;53.366;-1.498;2024-02-26T12:03:05;100209.28;;;7.43;100.00
41898;BME280;27576;53.366;-1.498;2024-02-26T12:05:34;100216.69;;;7.27;100.00
41898;BME280;27576;53.366;-1.498;2024-02-26T12:08:03;100216.38;;;7.13;100.00
41898;BME280;27576;53.366;-1.498;2024-02-26T12:10:34;100169.91;;;6.74;100.00
41898;BME280;27576;53.366;-1.498;2024-02-26T12:15:40;100195.47;;;7.01;100.00
41898;BME280;27576;53.366;-1.498;2024-02-26T12:18:07;100223.00;;;7.79;100.00
41898;BME280;27576;53.366;-1.498;2024-02-26T12:20:33;100232.22;;;8.53;100.00
41898;BME280;27576;53.366;-1.498;2024-02-26T12:23:01;100200.53;;;8.63;100.00
41898;BME280;27576;53.366;-1.498;2024-02-26T12:25:28;100172.06;;;8.58;100.00
41898;BME280;27576;53.366;-1.498;2024-02-26T12:27:54;100210.22;;;9.31;100.00
41898;BME280;27576;53.366;-1.498;2024-02-26T12:30:20;100230.81;;;9.86;100.00
41898;BME280;27576;53.366;-1.498;2024-02-26T12:32:51;100197.72;;;9.60;100.00
41898;BME280;27576;53.366;-1.498;2024-02-26T12:35:17;100213.78;;;9.36;100.00
41898;BME280;27576;53.366;-1.498;2024-02-26T12:37:46;100234.06;;;9.12;100.00
41898;BME280;27576;53.366;-1.498;2024-02-26T12:40:12;100241.06;;;8.67;100.00
41898;BME280;27576;53.366;-1.498;2024-02-26T12:42:38;100249.16;;;8.37;100.00
41898;BME280;27576;53.366;-1.498;2024-02-26T12:45:10;100257.41;;;8.22;100.00
41898;BME280;27576;53.366;-1.498;2024-02-26T12:47:40;100213.88;;;7.97;100.00
41898;BME280;27576;53.366;-1.498;2024-02-26T12:50:07;100241.69;;;8.10;100.00